Hyvinkaa, Finland

12:43 PM EEST on July 25, 2017 (GMT +0300)
Odilampi | | Change Station

Elev 223 ft 60.31 °N, 24.76 °E | Updated 1 minute ago

Overcast
Overcast
67.8 °F
Feels Like 67.8 °F
N
0.0
Wind Variable Wind from NNE
Gusts 1.3 mph

Today
High -- | Low -- °F
--% Chance of Precip.
Yesterday
High -- | Low -- °F
Precip. -- in
Pressure 29.83 in
Visibility 6.2 miles
Clouds Few 1800 ft
Scattered Clouds 2000 ft
Mostly Cloudy 6300 ft
Dew Point 57 °F
Humidity 69%
Rainfall 0.00 in
Snow Depth Not available.
4:42 AM 10:09 PM
Waxing Crescent, 5% visible
METAR EFHK 250920Z 36005KT 320V050 9999 VCSH FEW018 SCT020CB BKN063 18/13 Q1010 NOSIG
Pressure 29.83 in
Visibility 6.2 miles
Clouds Few 1800 ft
Scattered Clouds 2000 ft
Mostly Cloudy 6300 ft
Dew Point 57 °F
Humidity 69%
Rainfall 0.00 in
Snow Depth Not available.
4:42 AM 10:09 PM
Waxing Crescent, 5% visible
METAR EFHK 250920Z 36005KT 320V050 9999 VCSH FEW018 SCT020CB BKN063 18/13 Q1010 NOSIG

Get Severe Weather Alerts

Thanks for signing up!

Be on the lookout for a verification email in your inbox.

You'll start receiving the daily forecast at 6 AM.

×

10-Day Weather Forecast

×

Almanac

Astronomy

Jul. 25, 2017 Rise Set
Actual Time
Civil Twilight
Nautical Twilight
Astronomical Twilight
Moon
Length of Visible Light
Length of Day
Tomorrow will be .
, % of the Moon is Illuminated

Today's Extremes

Country Highs Country Lows

Community

WunderPhotos

Category 6

Welcome to Category 6. This is the collective home for Weather Underground's featured writeups by Dr. Jeff Masters (right), Bob Henson (left), Chris Burt, and other regular contributors.

Nearby

Air Quality

  Air Quality AQ Index Pollutant
Not available.

Snow Depth

Station Depth Elevation

Earthquake Activity

City Distance Mag. Time & Date
Minimum magnitude displayed is 2.5.

Coastal Water Temperatures

Place Temperature

Stations

Nearby Weather Stations

Station Location Temp. Windchill Dew Point Humidity Wind Precip. Elev Updated Type